Corpus Christi, TX

9:12 PM CST on February 13, 2016 (GMT -0600)
Aransas Cliffs | | Change Station
CLOSE
Current Station
Personal Weather Station
Location: Corpus Christi, TX
Elevation: 46 ft
Nearby Weather Stations

Elev 46 ft 27.75 °N, 97.38 °W | Updated 1 second ago

Clear
Clear
63.5 °F
Feels Like 63.5 °F
N
5.8
Wind Variable Wind from SE
Gusts 5.8 mph

Today
High -- | Low -- °F
--% Chance of Precip.
Yesterday
High -- | Low -- °F
Precip. -- in
Pressure 30.19 in
Visibility 10.0 miles
Clouds Few 25000 ft
Dew Point 56 °F
Humidity 77%
Rainfall 0.00 in
Snow Depth Not available.
7:08 AM 6:19 PM
Waxing Crescent, 37% visible
METAR KCRP 140251Z 14008KT 10SM FEW250 17/12 A3018 RMK AO2 SLP221 T01670117 58005 $
Pressure 30.19 in
Visibility 10.0 miles
Clouds Few 25000 ft
Dew Point 56 °F
Humidity 77%
Rainfall 0.00 in
Snow Depth Not available.
7:08 AM 6:19 PM
Waxing Crescent, 37% visible
METAR KCRP 140251Z 14008KT 10SM FEW250 17/12 A3018 RMK AO2 SLP221 T01670117 58005 $

10-Day Weather Forecast

Almanac

Astronomy

Feb. 13, 2016 Rise Set
Actual Time
Civil Twilight
Nautical Twilight
Astronomical Twilight
Moon
Length of Visible Light
Length of Day
Tomorrow will be .
, % of the Moon is Illuminated

Today's Extremes

State Highs State Lows

Community

WunderPhotos

Upload Photos

1,892,733 photos uploaded!

WunderBlog® & News

Nearby

Air Quality

  Air Quality AQ Index Pollutant
Not available.

Snow Depth

Station Depth Elevation

Earthquake Activity

City Distance Mag. Time & Date
Minimum magnitude displayed is 2.5.

Coastal Water Temperatures

Place Temperature

Stations

Nearby Weather Stations

Station Location Temp. Windchill Dew Point Humidity Wind Precip. Elev Updated Type
                   

Watches & Warnings

There are currently no watches in effect.